Philadelphia, Pennsylvania
Traffic Map
Current Weather Conditions
Philadelphia, Pennsylvania
Scattered Clouds Haze
Scattered Clouds
77°
Feels Like: 78°
Wind Chill: 77° Ceiling: Unl
Heat Index: 78° Visibility: 6mi
Dew Point: 73° Wind: 8mph
Humidity: 88% Direction: 260° (W)
Pressure: 29.88in Gusts: 0mph
Raw Report DataKPHL 310454Z 26007KT 6SM BR SCT085 SCT250 25/23 A2988 RMK AO2 SLP116 T02500228 403280250 $
Traffic Incident Summary
Active as of:
Severity:
Category:
InformationThere was an issue retrieving the traffic information for this location. Please try a different location or try again shortly.
Advertisements
Track Severe Weather on mobile